Time;durP1;ratioP1;P1;durP2;ratioP2;P2;SDS_P1;SDS_P2;PMS_P1;PMS_P2;Temp;Humidity;BMP_temperature;BMP_pressure;BME280_temperature;BME280_humidity;BME280_pressure;Samples;Min_cycle;Max_cycle;Signal;HPM_P1;HPM_P2
2024/02/04 00:01:23;;;;;;;2.80;1.05;;;;;;;;;;5030027;28;20168;-56
2024/02/04 00:03:49;;;;;;;3.07;1.00;;;;;;;;;;5030716;28;20025;-58
2024/02/04 00:06:14;;;;;;;2.50;1.00;;;;;;;;;;5030820;28;20095;-56
2024/02/04 00:08:39;;;;;;;3.00;1.00;;;;;;;;;;5030920;28;20025;-56
2024/02/04 00:11:04;;;;;;;2.70;1.10;;;;;;;;;;5029185;28;20424;-57
2024/02/04 00:13:30;;;;;;;3.63;1.02;;;;;;;;;;5027617;28;20022;-58
2024/02/04 00:15:55;;;;;;;3.43;1.40;;;;;;;;;;5027080;28;20138;-58
2024/02/04 00:18:20;;;;;;;3.05;1.05;;;;;;;;;;5031146;28;20431;-57
2024/02/04 00:20:46;;;;;;;2.53;1.00;;;;;;;;;;5029958;28;20020;-57
2024/02/04 00:23:11;;;;;;;3.92;1.30;;;;;;;;;;5029847;28;20033;-58
2024/02/04 00:25:36;;;;;;;2.80;1.00;;;;;;;;;;5030534;28;20065;-57
2024/02/04 00:28:01;;;;;;;2.58;0.90;;;;;;;;;;5029883;28;20048;-57
2024/02/04 00:30:26;;;;;;;2.30;0.87;;;;;;;;;;5029861;28;20399;-56
2024/02/04 00:32:51;;;;;;;3.27;1.10;;;;;;;;;;5030711;28;20036;-56
2024/02/04 00:35:17;;;;;;;2.80;1.20;;;;;;;;;;5030519;28;20016;-57
2024/02/04 00:37:42;;;;;;;2.50;0.97;;;;;;;;;;5030260;28;20085;-58
2024/02/04 00:40:08;;;;;;;2.63;1.05;;;;;;;;;;5030617;28;20018;-57
2024/02/04 00:42:33;;;;;;;3.50;1.23;;;;;;;;;;5030439;28;20045;-56
2024/02/04 00:44:58;;;;;;;3.50;1.40;;;;;;;;;;5024112;28;20044;-57
2024/02/04 00:47:23;;;;;;;2.83;1.00;;;;;;;;;;5032112;28;20037;-56
2024/02/04 00:49:48;;;;;;;3.60;1.13;;;;;;;;;;5034431;28;20021;-56
2024/02/04 00:52:13;;;;;;;3.15;1.00;;;;;;;;;;5034157;28;20023;-56
2024/02/04 00:54:39;;;;;;;2.80;1.05;;;;;;;;;;5031432;28;20033;-57
2024/02/04 00:57:04;;;;;;;3.70;1.25;;;;;;;;;;5034497;28;20036;-57
2024/02/04 00:59:29;;;;;;;3.30;1.20;;;;;;;;;;5032582;28;20041;-57
2024/02/04 01:01:55;;;;;;;3.13;1.10;;;;;;;;;;5030844;28;20017;-57
2024/02/04 01:04:22;;;;;;;2.70;1.00;;;;;;;;;;5030614;28;20021;-57
2024/02/04 01:06:48;;;;;;;2.53;1.00;;;;;;;;;;5033500;28;20021;-57
2024/02/04 01:09:13;;;;;;;3.87;1.00;;;;;;;;;;5033474;28;20022;-57
2024/02/04 01:11:38;;;;;;;4.28;1.10;;;;;;;;;;5031203;28;20489;-57
2024/02/04 01:14:03;;;;;;;4.13;1.08;;;;;;;;;;5032063;28;20518;-57
2024/02/04 01:16:29;;;;;;;4.20;1.20;;;;;;;;;;5030926;28;20061;-58
2024/02/04 01:18:54;;;;;;;2.70;0.90;;;;;;;;;;5031712;28;20412;-58
2024/02/04 01:21:19;;;;;;;2.22;0.80;;;;;;;;;;5029581;28;20028;-56
2024/02/04 01:23:44;;;;;;;3.83;0.93;;;;;;;;;;5032516;28;20037;-57
2024/02/04 01:26:09;;;;;;;2.47;0.93;;;;;;;;;;5025874;28;20042;-56
2024/02/04 01:28:35;;;;;;;3.38;0.90;;;;;;;;;;5027861;28;20045;-56
2024/02/04 01:31:00;;;;;;;2.95;1.05;;;;;;;;;;5021750;28;20030;-57
2024/02/04 01:33:25;;;;;;;3.70;0.97;;;;;;;;;;5033223;28;20056;-57
2024/02/04 01:35:51;;;;;;;1.80;0.70;;;;;;;;;;5031646;28;20132;-55
2024/02/04 01:38:16;;;;;;;2.55;0.88;;;;;;;;;;5027160;28;20045;-58
2024/02/04 01:40:42;;;;;;;2.55;0.80;;;;;;;;;;5031614;28;20060;-58
2024/02/04 01:43:07;;;;;;;2.70;1.10;;;;;;;;;;5023294;28;20030;-58
2024/02/04 01:45:32;;;;;;;3.60;1.07;;;;;;;;;;5028386;28;20018;-56
2024/02/04 01:47:57;;;;;;;4.63;0.90;;;;;;;;;;5013944;28;20025;-57
2024/02/04 01:50:23;;;;;;;2.23;0.80;;;;;;;;;;5031494;28;20017;-57
2024/02/04 01:52:48;;;;;;;2.70;1.00;;;;;;;;;;5025437;28;20101;-57
2024/02/04 01:55:13;;;;;;;3.25;1.00;;;;;;;;;;5017958;28;20029;-58
2024/02/04 01:57:39;;;;;;;3.10;1.00;;;;;;;;;;5015851;28;20100;-58
2024/02/04 02:00:04;;;;;;;3.20;1.00;;;;;;;;;;5028438;28;20502;-56
2024/02/04 02:02:30;;;;;;;3.55;0.80;;;;;;;;;;5021824;28;20385;-56
2024/02/04 02:04:56;;;;;;;4.07;0.80;;;;;;;;;;5030842;28;20067;-56
2024/02/04 02:07:22;;;;;;;3.58;0.90;;;;;;;;;;5030698;28;20136;-56
2024/02/04 02:09:47;;;;;;;2.47;0.70;;;;;;;;;;5029870;28;20101;-56
2024/02/04 02:12:31;;;;;;;2.45;0.75;;;;;;;;;;5028565;28;20025;-56
2024/02/04 02:14:59;;;;;;;2.67;0.82;;;;;;;;;;5026123;28;20025;-57
2024/02/04 02:17:41;;;;;;;2.67;0.90;;;;;;;;;;5021897;28;20186;-57
2024/02/04 02:20:09;;;;;;;1.98;0.73;;;;;;;;;;5021830;28;20064;-58
2024/02/04 02:22:47;;;;;;;2.20;0.70;;;;;;;;;;5030841;28;20433;-56
2024/02/04 02:25:13;;;;;;;2.95;0.88;;;;;;;;;;5027805;28;20616;-56
2024/02/04 02:27:48;;;;;;;5.57;1.00;;;;;;;;;;5030432;28;20109;-56
2024/02/04 02:30:13;;;;;;;2.20;0.70;;;;;;;;;;5028433;28;20032;-58
2024/02/04 02:32:38;;;;;;;3.03;0.87;;;;;;;;;;5031678;28;20018;-56
2024/02/04 02:35:04;;;;;;;2.97;0.97;;;;;;;;;;5030319;28;20436;-56
2024/02/04 02:37:41;;;;;;;3.40;1.00;;;;;;;;;;5022972;28;20061;-56
2024/02/04 02:40:16;;;;;;;3.17;1.10;;;;;;;;;;5018877;28;20021;-57
2024/02/04 02:42:42;;;;;;;3.53;1.33;;;;;;;;;;5021485;28;20024;-57
2024/02/04 02:45:07;;;;;;;;;;;;;;;;;;5021824;28;20109;-56
2024/02/04 02:47:33;;;;;;;4.05;1.60;;;;;;;;;;5032293;28;20047;-57
2024/02/04 02:50:00;;;;;;;4.10;1.60;;;;;;;;;;5026857;28;20037;-57
2024/02/04 02:52:25;;;;;;;4.55;1.63;;;;;;;;;;5028027;28;20037;-57
2024/02/04 02:54:50;;;;;;;5.47;1.90;;;;;;;;;;5030018;28;20013;-56
2024/02/04 02:57:15;;;;;;;4.00;1.50;;;;;;;;;;5025330;28;20524;-58
2024/02/04 02:59:40;;;;;;;4.50;1.90;;;;;;;;;;5027665;28;21094;-57
2024/02/04 03:02:05;;;;;;;4.60;2.10;;;;;;;;;;5018235;28;20032;-57
2024/02/04 03:04:30;;;;;;;5.32;1.95;;;;;;;;;;5031185;28;20022;-57
2024/02/04 03:06:56;;;;;;;5.22;2.13;;;;;;;;;;5024038;28;20049;-56
2024/02/04 03:09:21;;;;;;;5.10;1.90;;;;;;;;;;5023091;28;20370;-57
2024/02/04 03:11:46;;;;;;;5.30;2.10;;;;;;;;;;5019621;28;20429;-56
2024/02/04 03:14:13;;;;;;;4.50;2.00;;;;;;;;;;5024938;28;20052;-56
2024/02/04 03:16:38;;;;;;;6.07;2.35;;;;;;;;;;5026425;28;20512;-56
2024/02/04 03:19:06;;;;;;;6.20;2.47;;;;;;;;;;5018170;28;20124;-57
2024/02/04 03:21:31;;;;;;;5.80;2.30;;;;;;;;;;5028726;28;20087;-57
2024/02/04 03:23:57;;;;;;;5.07;2.15;;;;;;;;;;5028560;28;20021;-56
2024/02/04 03:26:22;;;;;;;5.30;2.47;;;;;;;;;;5018868;28;20446;-57
2024/02/04 03:28:47;;;;;;;5.07;1.83;;;;;;;;;;5024334;28;20022;-57
2024/02/04 03:31:19;;;;;;;5.60;1.83;;;;;;;;;;5023817;28;20025;-57
2024/02/04 03:33:44;;;;;;;4.50;1.70;;;;;;;;;;5020185;28;20029;-57
2024/02/04 03:36:09;;;;;;;4.60;1.70;;;;;;;;;;5020699;28;20030;-57
2024/02/04 03:38:35;;;;;;;4.03;1.70;;;;;;;;;;5023795;28;20037;-58
2024/02/04 03:41:00;;;;;;;4.45;1.67;;;;;;;;;;5026581;28;20021;-57
2024/02/04 03:43:25;;;;;;;4.05;1.38;;;;;;;;;;5027891;28;20481;-58
2024/02/04 03:45:50;;;;;;;3.67;1.25;;;;;;;;;;5029686;28;20032;-56
2024/02/04 03:48:15;;;;;;;2.95;1.10;;;;;;;;;;5025758;28;20031;-57
2024/02/04 03:50:41;;;;;;;3.42;1.20;;;;;;;;;;5019202;28;20026;-57
2024/02/04 03:53:06;;;;;;;3.40;1.10;;;;;;;;;;5031317;28;20033;-57
2024/02/04 03:55:31;;;;;;;4.05;1.20;;;;;;;;;;5028276;28;20021;-56
2024/02/04 03:57:57;;;;;;;2.93;1.00;;;;;;;;;;5024401;28;20032;-57
2024/02/04 04:00:22;;;;;;;3.30;1.00;;;;;;;;;;5030420;28;20108;-57
2024/02/04 04:02:48;;;;;;;3.20;1.00;;;;;;;;;;5023480;28;20550;-56
2024/02/04 04:05:13;;;;;;;4.35;1.10;;;;;;;;;;5029019;28;20029;-56
2024/02/04 04:07:38;;;;;;;4.00;1.30;;;;;;;;;;5029117;28;20025;-56
2024/02/04 04:10:04;;;;;;;3.38;1.27;;;;;;;;;;5031750;28;20389;-57
2024/02/04 04:12:29;;;;;;;3.63;1.20;;;;;;;;;;5030278;28;20021;-57
2024/02/04 04:14:54;;;;;;;3.33;1.20;;;;;;;;;;5029363;28;20399;-57
2024/02/04 04:17:19;;;;;;;3.60;1.33;;;;;;;;;;5028318;28;20060;-57
2024/02/04 04:19:44;;;;;;;3.50;1.27;;;;;;;;;;5015151;28;20029;-57
2024/02/04 04:22:09;;;;;;;3.17;1.30;;;;;;;;;;5029882;28;20409;-57
2024/02/04 04:24:35;;;;;;;4.57;1.80;;;;;;;;;;5031232;28;20052;-58
2024/02/04 04:27:00;;;;;;;4.72;1.55;;;;;;;;;;5030145;28;20043;-57
2024/02/04 04:29:26;;;;;;;4.03;1.60;;;;;;;;;;5025038;28;20163;-58
2024/02/04 04:31:52;;;;;;;5.35;1.95;;;;;;;;;;5021200;28;20022;-58
2024/02/04 04:34:19;;;;;;;5.65;1.52;;;;;;;;;;5022314;28;20389;-57
2024/02/04 04:36:44;;;;;;;5.13;1.70;;;;;;;;;;5023322;28;20053;-57
2024/02/04 04:39:09;;;;;;;4.50;1.60;;;;;;;;;;5026659;28;20447;-57
2024/02/04 04:41:35;;;;;;;4.22;1.63;;;;;;;;;;5025812;28;20025;-57
2024/02/04 04:44:00;;;;;;;5.10;1.65;;;;;;;;;;5026886;28;20032;-56
2024/02/04 04:46:25;;;;;;;3.92;1.52;;;;;;;;;;5019358;28;20444;-56
2024/02/04 04:48:52;;;;;;;5.25;1.90;;;;;;;;;;5030252;28;20028;-57
2024/02/04 04:51:17;;;;;;;5.65;1.70;;;;;;;;;;5026908;28;20056;-57
2024/02/04 04:53:42;;;;;;;4.72;1.48;;;;;;;;;;5031411;28;20029;-57
2024/02/04 04:56:07;;;;;;;4.32;1.50;;;;;;;;;;5025438;28;20095;-57
2024/02/04 04:58:33;;;;;;;4.33;1.43;;;;;;;;;;5030225;28;20017;-58
2024/02/04 05:00:58;;;;;;;4.68;1.20;;;;;;;;;;5022174;28;20032;-56
2024/02/04 05:03:23;;;;;;;3.70;1.40;;;;;;;;;;5015230;28;20045;-57
2024/02/04 05:05:48;;;;;;;5.17;1.50;;;;;;;;;;5030384;28;20489;-58
2024/02/04 05:08:14;;;;;;;4.80;1.40;;;;;;;;;;5025467;28;20021;-57
2024/02/04 05:10:39;;;;;;;4.82;1.50;;;;;;;;;;5029149;28;20032;-57
2024/02/04 05:13:04;;;;;;;4.43;1.48;;;;;;;;;;5029126;28;20021;-57
2024/02/04 05:15:29;;;;;;;3.55;1.20;;;;;;;;;;5021042;28;20029;-58
2024/02/04 05:17:54;;;;;;;3.53;1.35;;;;;;;;;;5024596;28;20037;-58
2024/02/04 05:20:20;;;;;;;3.25;1.20;;;;;;;;;;5027571;28;20045;-57
2024/02/04 05:22:45;;;;;;;3.92;1.30;;;;;;;;;;5012121;28;20366;-57
2024/02/04 05:25:10;;;;;;;4.35;1.25;;;;;;;;;;5026039;28;20112;-57
2024/02/04 05:27:36;;;;;;;4.00;1.70;;;;;;;;;;5028696;28;20036;-58
2024/02/04 05:30:01;;;;;;;3.55;1.42;;;;;;;;;;5029619;28;20535;-58
2024/02/04 05:32:26;;;;;;;3.63;1.30;;;;;;;;;;5032229;28;20028;-58
2024/02/04 05:34:52;;;;;;;3.60;1.30;;;;;;;;;;5031993;28;20509;-58
2024/02/04 05:37:17;;;;;;;3.77;1.30;;;;;;;;;;5027427;28;20056;-58
2024/02/04 05:39:42;;;;;;;4.18;1.40;;;;;;;;;;5028458;28;20120;-58
2024/02/04 05:42:07;;;;;;;3.60;1.20;;;;;;;;;;5028252;28;20029;-57
2024/02/04 05:44:32;;;;;;;4.77;1.50;;;;;;;;;;5031913;28;20559;-57
2024/02/04 05:46:57;;;;;;;3.90;1.40;;;;;;;;;;5030495;28;20048;-57
2024/02/04 05:49:23;;;;;;;3.97;1.38;;;;;;;;;;5031984;28;20477;-57
2024/02/04 05:51:48;;;;;;;4.27;1.40;;;;;;;;;;5029828;28;20053;-57
2024/02/04 05:54:13;;;;;;;3.50;1.30;;;;;;;;;;5028603;28;20021;-56
2024/02/04 05:56:38;;;;;;;3.80;1.30;;;;;;;;;;5023597;28;20053;-57
2024/02/04 05:59:03;;;;;;;3.83;1.48;;;;;;;;;;5029770;28;20022;-57
2024/02/04 06:01:28;;;;;;;4.20;1.63;;;;;;;;;;5031645;28;20025;-57
2024/02/04 06:03:53;;;;;;;3.78;1.35;;;;;;;;;;5032072;28;20044;-58
2024/02/04 06:06:20;;;;;;;4.10;1.40;;;;;;;;;;5032585;28;20034;-58
2024/02/04 06:08:45;;;;;;;4.07;1.48;;;;;;;;;;5032812;28;20017;-57
2024/02/04 06:11:11;;;;;;;3.72;1.40;;;;;;;;;;5021029;28;20397;-56
2024/02/04 06:13:36;;;;;;;4.10;1.48;;;;;;;;;;5031110;28;20032;-57
2024/02/04 06:16:01;;;;;;;5.00;1.60;;;;;;;;;;5022249;28;20076;-58
2024/02/04 06:18:27;;;;;;;4.07;1.65;;;;;;;;;;5030231;28;20478;-57
2024/02/04 06:20:52;;;;;;;3.47;1.30;;;;;;;;;;5032335;28;20032;-58
2024/02/04 06:23:19;;;;;;;5.60;1.50;;;;;;;;;;5032109;28;20432;-58
2024/02/04 06:25:44;;;;;;;4.57;1.45;;;;;;;;;;5030210;28;20056;-56
2024/02/04 06:28:10;;;;;;;4.07;1.50;;;;;;;;;;5032395;28;20057;-57
2024/02/04 06:30:35;;;;;;;4.68;1.70;;;;;;;;;;5023600;28;20029;-57
2024/02/04 06:33:00;;;;;;;4.30;1.60;;;;;;;;;;5031106;28;20024;-56
2024/02/04 06:35:26;;;;;;;4.18;1.48;;;;;;;;;;5032048;28;20247;-57
2024/02/04 06:37:51;;;;;;;3.78;1.35;;;;;;;;;;5032971;28;20813;-56
2024/02/04 06:40:16;;;;;;;3.95;1.25;;;;;;;;;;5033381;28;20038;-57
2024/02/04 06:42:41;;;;;;;4.17;1.30;;;;;;;;;;5016094;28;20112;-57
2024/02/04 06:45:06;;;;;;;4.20;1.27;;;;;;;;;;5032776;28;20104;-58
2024/02/04 06:47:32;;;;;;;3.80;1.40;;;;;;;;;;5034833;28;20025;-58
2024/02/04 06:49:57;;;;;;;4.23;1.47;;;;;;;;;;5026755;28;20022;-57
2024/02/04 06:52:22;;;;;;;3.70;1.40;;;;;;;;;;5022325;28;20017;-57
2024/02/04 06:54:47;;;;;;;4.47;1.40;;;;;;;;;;5026658;28;20025;-57
2024/02/04 06:57:12;;;;;;;3.53;1.40;;;;;;;;;;5033403;28;20033;-57
2024/02/04 06:59:37;;;;;;;3.78;1.35;;;;;;;;;;5026999;28;20025;-57
2024/02/04 07:02:03;;;;;;;3.90;1.27;;;;;;;;;;5026909;28;20029;-56
2024/02/04 07:04:28;;;;;;;3.90;1.00;;;;;;;;;;5020313;28;20379;-58
2024/02/04 07:06:53;;;;;;;4.75;1.35;;;;;;;;;;5031050;28;20021;-58
2024/02/04 07:09:18;;;;;;;3.72;1.20;;;;;;;;;;5030707;28;20029;-56
2024/02/04 07:11:43;;;;;;;3.30;1.20;;;;;;;;;;5027956;28;20061;-56
2024/02/04 07:14:08;;;;;;;3.65;1.30;;;;;;;;;;5025889;28;20044;-57
2024/02/04 07:16:34;;;;;;;3.38;1.10;;;;;;;;;;5029476;28;20068;-56
2024/02/04 07:18:59;;;;;;;4.77;1.10;;;;;;;;;;5029377;28;20033;-57
2024/02/04 07:21:24;;;;;;;2.43;0.80;;;;;;;;;;5029441;28;20026;-56
2024/02/04 07:23:49;;;;;;;3.00;0.80;;;;;;;;;;5027927;28;20451;-57
2024/02/04 07:26:14;;;;;;;2.55;0.80;;;;;;;;;;5028011;28;20060;-56
2024/02/04 07:28:39;;;;;;;3.17;1.13;;;;;;;;;;5018947;28;20389;-56
2024/02/04 07:31:04;;;;;;;2.80;1.00;;;;;;;;;;5028430;28;20390;-57
2024/02/04 07:33:30;;;;;;;2.30;0.90;;;;;;;;;;5029913;28;20089;-57
2024/02/04 07:35:55;;;;;;;3.57;0.83;;;;;;;;;;5030604;28;20025;-58
2024/02/04 07:38:20;;;;;;;1.95;0.70;;;;;;;;;;5027343;28;20084;-57
2024/02/04 07:40:45;;;;;;;1.87;0.70;;;;;;;;;;5030586;28;20059;-58
2024/02/04 07:43:10;;;;;;;2.30;0.70;;;;;;;;;;5027862;28;20067;-57
2024/02/04 07:45:35;;;;;;;3.17;0.77;;;;;;;;;;5022878;28;20037;-56
2024/02/04 07:48:02;;;;;;;1.77;0.60;;;;;;;;;;5026172;28;20025;-57
2024/02/04 07:50:27;;;;;;;2.38;0.60;;;;;;;;;;5030084;28;20516;-58
2024/02/04 07:52:52;;;;;;;1.48;0.50;;;;;;;;;;5021209;28;20021;-57
2024/02/04 07:55:17;;;;;;;2.70;0.90;;;;;;;;;;5030393;28;20094;-57
2024/02/04 07:57:42;;;;;;;1.88;0.65;;;;;;;;;;5024999;28;20108;-57
2024/02/04 08:00:10;;;;;;;1.67;0.50;;;;;;;;;;5027053;28;20092;-58
2024/02/04 08:02:35;;;;;;;1.05;0.50;;;;;;;;;;5026757;28;20030;-57
2024/02/04 08:05:00;;;;;;;1.47;0.50;;;;;;;;;;5027024;28;20524;-57
2024/02/04 08:07:26;;;;;;;1.35;0.40;;;;;;;;;;5025082;28;20022;-57
2024/02/04 08:09:52;;;;;;;1.00;0.40;;;;;;;;;;5033754;28;20100;-57
2024/02/04 08:12:17;;;;;;;2.78;0.40;;;;;;;;;;5036576;28;20036;-57
2024/02/04 08:14:42;;;;;;;1.63;0.53;;;;;;;;;;5020093;28;20030;-56
2024/02/04 08:17:07;;;;;;;1.08;0.40;;;;;;;;;;5020360;28;20484;-57
2024/02/04 08:19:33;;;;;;;0.35;0.30;;;;;;;;;;5019050;28;20436;-56
2024/02/04 08:21:58;;;;;;;2.47;0.50;;;;;;;;;;5027933;28;20033;-56
2024/02/04 08:24:23;;;;;;;1.40;0.43;;;;;;;;;;5020671;28;20490;-56
2024/02/04 08:26:48;;;;;;;1.47;0.50;;;;;;;;;;5029782;28;20028;-57
2024/02/04 08:29:14;;;;;;;1.23;0.40;;;;;;;;;;5028909;28;20017;-57
2024/02/04 08:31:39;;;;;;;1.75;0.40;;;;;;;;;;5029159;28;20013;-56
2024/02/04 08:34:05;;;;;;;0.87;0.33;;;;;;;;;;5024429;28;20036;-56
2024/02/04 08:36:31;;;;;;;1.35;0.60;;;;;;;;;;5036604;28;20025;-59
2024/02/04 08:38:56;;;;;;;1.10;0.37;;;;;;;;;;5027405;28;20033;-56
2024/02/04 08:41:21;;;;;;;0.70;0.30;;;;;;;;;;5033179;28;20022;-57
2024/02/04 08:43:46;;;;;;;1.43;0.57;;;;;;;;;;5026643;28;20056;-57
2024/02/04 08:46:11;;;;;;;1.17;0.30;;;;;;;;;;5026378;28;20417;-57
2024/02/04 08:48:37;;;;;;;0.70;0.20;;;;;;;;;;5026038;28;20147;-56
2024/02/04 08:51:02;;;;;;;0.90;0.30;;;;;;;;;;5026997;28;20018;-56
2024/02/04 08:53:27;;;;;;;0.80;0.30;;;;;;;;;;5028528;28;20040;-58
2024/02/04 08:55:52;;;;;;;1.52;0.52;;;;;;;;;;5029692;28;20025;-56
2024/02/04 08:58:17;;;;;;;0.80;0.40;;;;;;;;;;5031070;28;20025;-57
2024/02/04 09:00:43;;;;;;;0.88;0.20;;;;;;;;;;5030761;28;20472;-57
2024/02/04 09:03:08;;;;;;;0.80;0.28;;;;;;;;;;5025609;28;20022;-57
2024/02/04 09:05:33;;;;;;;0.88;0.40;;;;;;;;;;5034566;28;20025;-56
2024/02/04 09:07:58;;;;;;;0.80;0.40;;;;;;;;;;5038741;28;20095;-60
2024/02/04 09:10:23;;;;;;;0.80;0.30;;;;;;;;;;5052463;28;20025;-58
2024/02/04 09:12:48;;;;;;;0.70;0.30;;;;;;;;;;5046174;28;20025;-57
2024/02/04 09:15:13;;;;;;;1.33;0.40;;;;;;;;;;5043048;28;20063;-60
2024/02/04 09:17:39;;;;;;;1.47;0.30;;;;;;;;;;5037858;28;20013;-56
2024/02/04 09:20:04;;;;;;;1.57;0.50;;;;;;;;;;5032960;28;20552;-56
2024/02/04 09:22:29;;;;;;;1.00;0.40;;;;;;;;;;5034495;28;20043;-57
2024/02/04 09:24:54;;;;;;;1.30;0.50;;;;;;;;;;5032806;28;20400;-58
2024/02/04 09:27:19;;;;;;;2.20;0.50;;;;;;;;;;5033090;28;20113;-57
2024/02/04 09:29:45;;;;;;;2.07;0.40;;;;;;;;;;5030629;28;20051;-57
2024/02/04 09:32:11;;;;;;;2.20;0.60;;;;;;;;;;5027149;28;20050;-57
2024/02/04 09:34:36;;;;;;;2.83;0.60;;;;;;;;;;5031858;28;20022;-56
2024/02/04 09:37:02;;;;;;;2.17;0.60;;;;;;;;;;5034016;28;20022;-57
2024/02/04 09:39:29;;;;;;;2.67;0.52;;;;;;;;;;5032053;28;20033;-57
2024/02/04 09:41:54;;;;;;;1.60;0.50;;;;;;;;;;5027073;28;20021;-57
2024/02/04 09:44:21;;;;;;;2.43;0.60;;;;;;;;;;5024050;28;20030;-58
2024/02/04 09:46:46;;;;;;;1.58;0.55;;;;;;;;;;5025920;28;20117;-57
2024/02/04 09:49:12;;;;;;;2.87;0.60;;;;;;;;;;5027658;28;20565;-56
2024/02/04 09:51:39;;;;;;;1.38;0.45;;;;;;;;;;5032259;28;20083;-57
2024/02/04 09:54:06;;;;;;;3.53;1.17;;;;;;;;;;5030469;28;20575;-57
2024/02/04 09:56:33;;;;;;;1.65;0.55;;;;;;;;;;5031282;28;20021;-57
2024/02/04 09:58:58;;;;;;;2.25;0.75;;;;;;;;;;5027179;28;20064;-57
2024/02/04 10:01:23;;;;;;;1.87;0.50;;;;;;;;;;5032228;28;20038;-57
2024/02/04 10:03:48;;;;;;;1.13;0.40;;;;;;;;;;5032341;28;20028;-56
2024/02/04 10:06:13;;;;;;;1.57;0.40;;;;;;;;;;5032180;28;20022;-58
2024/02/04 10:08:38;;;;;;;1.83;0.60;;;;;;;;;;5026662;28;20014;-56
2024/02/04 10:11:04;;;;;;;2.03;0.70;;;;;;;;;;5032435;28;20031;-57
2024/02/04 10:13:29;;;;;;;1.37;0.40;;;;;;;;;;5032904;28;20029;-57
2024/02/04 10:15:54;;;;;;;1.50;0.50;;;;;;;;;;5028274;28;20029;-57
2024/02/04 10:18:20;;;;;;;1.77;0.65;;;;;;;;;;5033382;28;20025;-57
2024/02/04 10:20:45;;;;;;;1.43;0.50;;;;;;;;;;5033697;28;20044;-57
2024/02/04 10:23:10;;;;;;;1.92;0.63;;;;;;;;;;5031440;28;20459;-58
2024/02/04 10:25:35;;;;;;;3.00;0.93;;;;;;;;;;5033411;28;20048;-57
2024/02/04 10:28:02;;;;;;;2.05;0.70;;;;;;;;;;5032199;28;20021;-56
2024/02/04 10:30:28;;;;;;;12.10;3.15;;;;;;;;;;5032838;28;20044;-58
2024/02/04 10:32:53;;;;;;;3.50;0.80;;;;;;;;;;5032701;28;20474;-57
2024/02/04 10:35:23;;;;;;;3.00;0.70;;;;;;;;;;5032705;28;20030;-57
2024/02/04 10:37:48;;;;;;;2.60;0.80;;;;;;;;;;5030271;28;20017;-57
2024/02/04 10:40:13;;;;;;;4.55;1.00;;;;;;;;;;5029798;28;20080;-57
2024/02/04 10:42:40;;;;;;;2.63;0.90;;;;;;;;;;5032132;28;20048;-57
2024/02/04 10:45:07;;;;;;;3.20;0.93;;;;;;;;;;5032957;28;20398;-58
2024/02/04 10:47:35;;;;;;;4.25;1.30;;;;;;;;;;5034030;28;20558;-57
2024/02/04 10:50:02;;;;;;;3.28;1.00;;;;;;;;;;5033480;28;20057;-57
2024/02/04 10:52:28;;;;;;;3.40;1.02;;;;;;;;;;5031746;28;20389;-58
2024/02/04 10:54:53;;;;;;;2.63;1.00;;;;;;;;;;5027701;28;20026;-57
2024/02/04 10:57:22;;;;;;;4.38;1.25;;;;;;;;;;5032262;28;20033;-56
2024/02/04 10:59:48;;;;;;;3.40;1.20;;;;;;;;;;5030761;28;20037;-57
2024/02/04 11:02:14;;;;;;;3.38;1.13;;;;;;;;;;5032963;28;20485;-58
2024/02/04 11:04:44;;;;;;;4.32;1.13;;;;;;;;;;5029888;28;20573;-57
2024/02/04 11:07:10;;;;;;;3.35;1.10;;;;;;;;;;5022367;28;20021;-56
2024/02/04 11:09:39;;;;;;;2.72;0.90;;;;;;;;;;5027949;28;20121;-55
2024/02/04 11:12:06;;;;;;;2.40;0.80;;;;;;;;;;5028709;28;20035;-58
2024/02/04 11:14:32;;;;;;;3.00;0.77;;;;;;;;;;5018516;28;20057;-57
2024/02/04 11:17:08;;;;;;;1.15;0.47;;;;;;;;;;5012285;28;20438;-58
2024/02/04 11:19:53;;;;;;;2.10;0.60;;;;;;;;;;5032315;28;20033;-56
2024/02/04 11:22:18;;;;;;;1.70;0.65;;;;;;;;;;5029189;28;20071;-57
2024/02/04 11:24:59;;;;;;;1.83;0.60;;;;;;;;;;5030216;28;20021;-58
2024/02/04 11:27:24;;;;;;;1.48;0.63;;;;;;;;;;5023188;28;20022;-57
2024/02/04 11:29:50;;;;;;;2.33;0.63;;;;;;;;;;5012246;28;20751;-57
2024/02/04 11:32:16;;;;;;;1.65;0.63;;;;;;;;;;5010669;28;20029;-58
2024/02/04 11:34:42;;;;;;;2.67;0.70;;;;;;;;;;5030853;28;20044;-57
2024/02/04 11:37:18;;;;;;;1.87;0.60;;;;;;;;;;5030940;28;20010;-57
2024/02/04 11:39:52;;;;;;;2.42;0.80;;;;;;;;;;5033219;28;20487;-57
2024/02/04 11:42:17;;;;;;;1.83;0.70;;;;;;;;;;5036093;28;20490;-58
2024/02/04 11:44:43;;;;;;;2.83;1.00;;;;;;;;;;5041466;28;20032;-58
2024/02/04 11:47:09;;;;;;;2.35;0.75;;;;;;;;;;5022193;28;20455;-57
2024/02/04 11:49:34;;;;;;;2.60;0.93;;;;;;;;;;5021397;28;20029;-57
2024/02/04 11:51:59;;;;;;;2.77;0.90;;;;;;;;;;5030325;28;20025;-57
2024/02/04 11:54:25;;;;;;;2.97;0.82;;;;;;;;;;5029839;28;20029;-58
2024/02/04 11:56:53;;;;;;;2.58;0.82;;;;;;;;;;5027574;28;20513;-57
2024/02/04 11:59:23;;;;;;;2.60;0.80;;;;;;;;;;5032472;28;20124;-57
2024/02/04 12:01:48;;;;;;;3.00;0.98;;;;;;;;;;5024978;28;20029;-57
2024/02/04 12:04:15;;;;;;;4.17;1.07;;;;;;;;;;5025305;28;20149;-57
2024/02/04 12:06:40;;;;;;;3.90;1.10;;;;;;;;;;5017388;28;20371;-57
2024/02/04 12:09:06;;;;;;;2.97;1.10;;;;;;;;;;5019997;28;20037;-56
2024/02/04 12:11:31;;;;;;;3.47;1.02;;;;;;;;;;5025178;28;20036;-57
2024/02/04 12:13:58;;;;;;;4.00;1.40;;;;;;;;;;5023069;28;20060;-57
2024/02/04 12:16:24;;;;;;;2.50;0.90;;;;;;;;;;5022410;28;20115;-58
2024/02/04 12:18:50;;;;;;;4.22;1.17;;;;;;;;;;5024504;28;20064;-56
2024/02/04 12:21:15;;;;;;;3.03;1.00;;;;;;;;;;5024661;28;20033;-57
2024/02/04 12:23:40;;;;;;;3.13;1.00;;;;;;;;;;5014378;28;20021;-57
2024/02/04 12:26:05;;;;;;;3.07;1.00;;;;;;;;;;5027215;28;20027;-57
2024/02/04 12:28:30;;;;;;;3.90;1.20;;;;;;;;;;5016654;28;20037;-58
2024/02/04 12:30:56;;;;;;;3.40;1.10;;;;;;;;;;5021523;28;20029;-58
2024/02/04 12:33:21;;;;;;;3.20;1.10;;;;;;;;;;5024723;28;20028;-58
2024/02/04 12:35:51;;;;;;;3.00;1.03;;;;;;;;;;5027190;28;20014;-57
2024/02/04 12:38:17;;;;;;;3.58;0.98;;;;;;;;;;5023162;28;20037;-59
2024/02/04 12:40:42;;;;;;;2.63;0.85;;;;;;;;;;5026687;28;20029;-61
2024/02/04 12:43:10;;;;;;;3.40;1.23;;;;;;;;;;5030367;28;20041;-57
2024/02/04 12:45:35;;;;;;;3.13;1.05;;;;;;;;;;5029159;28;20444;-58
2024/02/04 12:48:01;;;;;;;3.43;1.10;;;;;;;;;;5025580;28;20021;-57
2024/02/04 12:50:26;;;;;;;2.90;0.95;;;;;;;;;;5026644;28;20370;-57
2024/02/04 12:53:08;;;;;;;3.00;1.08;;;;;;;;;;5026489;28;20056;-58
2024/02/04 12:55:34;;;;;;;2.72;1.10;;;;;;;;;;5029501;28;20025;-57
2024/02/04 12:58:05;;;;;;;3.42;1.05;;;;;;;;;;5028155;28;20035;-57
2024/02/04 13:00:32;;;;;;;3.30;1.42;;;;;;;;;;5019956;28;20029;-57
2024/02/04 13:02:57;;;;;;;;;;;;;;;;;;5025461;28;20052;-58
2024/02/04 13:05:26;;;;;;;2.63;1.00;;;;;;;;;;5036148;28;19932;-57
2024/02/04 13:07:52;;;;;;;2.70;1.10;;;;;;;;;;5043180;28;20026;-57
2024/02/04 13:10:17;;;;;;;3.28;1.20;;;;;;;;;;5042408;28;20005;-58
2024/02/04 13:12:43;;;;;;;3.72;1.20;;;;;;;;;;5048700;28;20021;-58
2024/02/04 13:15:08;;;;;;;3.15;1.10;;;;;;;;;;5048723;28;20028;-57
2024/02/04 13:17:34;;;;;;;3.17;1.20;;;;;;;;;;5033570;28;20080;-57
2024/02/04 13:19:59;;;;;;;4.40;1.30;;;;;;;;;;5036220;28;20025;-56
2024/02/04 13:22:24;;;;;;;2.45;0.90;;;;;;;;;;5029076;28;20036;-58
2024/02/04 13:24:49;;;;;;;3.00;1.20;;;;;;;;;;5034055;28;20546;-58
2024/02/04 13:27:16;;;;;;;3.03;1.00;;;;;;;;;;5029367;28;20060;-59
2024/02/04 13:29:41;;;;;;;;;;;;;;;;;;5022840;28;20025;-58
2024/02/04 13:32:06;;;;;;;4.03;1.00;;;;;;;;;;5025753;28;19916;-57
2024/02/04 13:34:31;;;;;;;1.98;0.80;;;;;;;;;;5027976;28;20026;-57
2024/02/04 13:36:57;;;;;;;2.60;0.80;;;;;;;;;;5028397;28;20377;-58
2024/02/04 13:39:22;;;;;;;3.67;1.10;;;;;;;;;;5022015;28;20083;-57
2024/02/04 13:41:47;;;;;;;3.85;1.02;;;;;;;;;;5032402;28;20036;-58
2024/02/04 13:44:13;;;;;;;4.75;1.30;;;;;;;;;;5029429;28;20041;-58
2024/02/04 13:46:42;;;;;;;3.07;1.23;;;;;;;;;;5029052;28;20031;-57
2024/02/04 13:49:07;;;;;;;2.83;1.00;;;;;;;;;;5022449;28;20025;-56
2024/02/04 13:51:32;;;;;;;4.10;1.20;;;;;;;;;;5028822;28;20519;-58
2024/02/04 13:53:57;;;;;;;3.50;1.20;;;;;;;;;;5024385;28;20067;-57
2024/02/04 13:56:22;;;;;;;4.70;2.28;;;;;;;;;;5027271;28;20033;-56
2024/02/04 13:58:47;;;;;;;2.70;0.90;;;;;;;;;;5028478;28;20772;-57
2024/02/04 14:01:13;;;;;;;2.90;1.10;;;;;;;;;;5027399;28;20025;-58
2024/02/04 14:03:38;;;;;;;2.85;0.90;;;;;;;;;;5030115;28;20029;-58
2024/02/04 14:06:03;;;;;;;2.53;0.85;;;;;;;;;;5028014;28;20397;-56
2024/02/04 14:08:29;;;;;;;2.40;0.90;;;;;;;;;;5039660;28;20548;-57
2024/02/04 14:10:54;;;;;;;2.60;1.00;;;;;;;;;;5035968;28;20108;-56
2024/02/04 14:13:19;;;;;;;3.10;1.10;;;;;;;;;;5020589;28;20029;-58
2024/02/04 14:15:45;;;;;;;3.55;1.10;;;;;;;;;;5027603;28;20530;-58
2024/02/04 14:18:10;;;;;;;4.83;1.40;;;;;;;;;;5031301;28;20037;-57
2024/02/04 14:20:35;;;;;;;4.37;1.40;;;;;;;;;;5029450;28;20033;-58
2024/02/04 14:23:01;;;;;;;3.08;1.15;;;;;;;;;;5026389;28;20029;-57
2024/02/04 14:25:27;;;;;;;3.85;1.10;;;;;;;;;;5028211;28;20817;-56
2024/02/04 14:27:52;;;;;;;4.75;1.73;;;;;;;;;;5020319;28;20040;-57
2024/02/04 14:30:17;;;;;;;4.77;1.67;;;;;;;;;;5028447;28;20084;-58
2024/02/04 14:32:42;;;;;;;4.13;1.13;;;;;;;;;;5022636;28;20114;-58
2024/02/04 14:35:09;;;;;;;3.33;0.90;;;;;;;;;;5021747;28;20061;-57